createdAt,value
2023-02-06T00:00:05.294Z,1038.39
2023-02-06T00:01:05.283Z,1038.42
2023-02-06T00:02:05.267Z,1038.39
2023-02-06T00:03:05.310Z,1038.41
2023-02-06T00:04:05.236Z,1038.42
2023-02-06T00:05:05.328Z,1038.43
2023-02-06T00:06:05.342Z,1038.47
2023-02-06T00:07:05.216Z,1038.40
2023-02-06T00:08:05.204Z,1038.44
2023-02-06T00:09:05.258Z,1038.43
2023-02-06T00:10:05.173Z,1038.41
2023-02-06T00:11:05.174Z,1038.39
2023-02-06T00:12:05.153Z,1038.32
2023-02-06T00:13:05.149Z,1038.36
2023-02-06T00:14:05.383Z,1038.39
2023-02-06T00:15:05.128Z,1038.35
2023-02-06T00:16:05.207Z,1038.35
2023-02-06T00:17:05.104Z,1038.32
2023-02-06T00:18:05.094Z,1038.35
2023-02-06T00:19:05.082Z,1038.35
2023-02-06T00:20:05.135Z,1038.33
2023-02-06T00:21:05.063Z,1038.29
2023-02-06T00:22:05.090Z,1038.25
2023-02-06T00:23:05.035Z,1038.25
2023-02-06T00:24:26.021Z,1038.18
2023-02-06T00:25:05.025Z,1038.24
2023-02-06T00:26:05.036Z,1038.13
2023-02-06T00:27:04.984Z,1038.14
2023-02-06T00:28:05.084Z,1038.12
2023-02-06T00:29:04.994Z,1038.06
2023-02-06T00:30:04.967Z,1038.06
2023-02-06T00:31:05.038Z,1038.08
2023-02-06T00:32:04.950Z,1038.11
2023-02-06T00:33:04.928Z,1038.10
2023-02-06T00:34:04.920Z,1038.12
2023-02-06T00:35:04.906Z,1038.13
2023-02-06T00:36:04.922Z,1038.10
2023-02-06T00:37:04.889Z,1038.12
2023-02-06T00:38:04.875Z,1038.07
2023-02-06T00:39:04.872Z,1038.06
2023-02-06T00:40:04.851Z,1038.06
2023-02-06T00:41:04.864Z,1038.04
2023-02-06T00:42:04.826Z,1038.01
2023-02-06T00:43:04.847Z,1038.02
2023-02-06T00:44:04.814Z,1038.02
2023-02-06T00:45:04.897Z,1038.00
2023-02-06T00:46:04.860Z,1038.03
2023-02-06T00:47:04.765Z,1038.01
2023-02-06T00:48:04.785Z,1038.05
2023-02-06T00:49:04.801Z,1038.05
2023-02-06T00:50:04.749Z,1038.06
2023-02-06T00:51:04.725Z,1038.04
2023-02-06T00:52:04.708Z,1038.04
2023-02-06T00:53:04.722Z,1038.05
2023-02-06T00:54:04.711Z,1038.01
2023-02-06T00:55:04.697Z,1038.01
2023-02-06T00:56:04.687Z,1038.04
2023-02-06T00:57:04.657Z,1038.05
2023-02-06T00:58:04.664Z,1038.06
2023-02-06T00:59:04.682Z,1038.01
2023-02-06T01:00:04.645Z,1037.96
2023-02-06T01:01:04.632Z,1037.98
2023-02-06T01:02:04.617Z,1037.97
2023-02-06T01:03:04.636Z,1037.93
2023-02-06T01:04:04.590Z,1037.99
2023-02-06T01:05:05.145Z,1037.93
2023-02-06T01:06:04.587Z,1037.90
2023-02-06T01:07:04.549Z,1037.97
2023-02-06T01:08:04.784Z,1037.90
2023-02-06T01:09:04.526Z,1037.89
2023-02-06T01:10:04.530Z,1037.90
2023-02-06T01:11:05.604Z,1037.90
2023-02-06T01:12:04.536Z,1037.89
2023-02-06T01:13:04.511Z,1037.90
2023-02-06T01:14:04.486Z,1037.93
2023-02-06T01:15:04.465Z,1037.92
2023-02-06T01:16:04.465Z,1037.92
2023-02-06T01:17:05.470Z,1038.00
2023-02-06T01:18:04.452Z,1037.97
2023-02-06T01:19:04.424Z,1038.00
2023-02-06T01:20:04.404Z,1037.99
2023-02-06T01:21:04.454Z,1038.04
2023-02-06T01:22:04.384Z,1038.03
2023-02-06T01:23:04.375Z,1038.12
2023-02-06T01:24:04.371Z,1038.16
2023-02-06T01:25:04.352Z,1038.18
2023-02-06T01:26:04.334Z,1038.18
2023-02-06T01:27:04.316Z,1038.23
2023-02-06T01:28:04.356Z,1038.21
2023-02-06T01:29:04.344Z,1038.16
2023-02-06T01:30:04.299Z,1038.16
2023-02-06T01:31:04.297Z,1038.15
2023-02-06T01:32:04.267Z,1038.11
2023-02-06T01:33:04.269Z,1038.18
2023-02-06T01:34:04.233Z,1038.08
2023-02-06T01:35:04.251Z,1038.17
2023-02-06T01:36:04.228Z,1038.20
2023-02-06T01:37:04.253Z,1038.17
2023-02-06T01:38:04.201Z,1038.21
2023-02-06T01:39:05.144Z,1038.28
2023-02-06T01:40:04.176Z,1038.27
2023-02-06T01:41:04.173Z,1038.27
2023-02-06T01:42:04.173Z,1038.30
2023-02-06T01:43:04.196Z,1038.24
2023-02-06T01:44:04.129Z,1038.22
2023-02-06T01:45:04.145Z,1038.23
2023-02-06T01:46:04.117Z,1038.24
2023-02-06T01:47:04.096Z,1038.23
2023-02-06T01:48:04.132Z,1038.22
2023-02-06T01:49:06.053Z,1038.21
2023-02-06T01:50:04.090Z,1038.17
2023-02-06T01:51:04.061Z,1038.18
2023-02-06T01:52:04.080Z,1038.14
2023-02-06T01:53:04.028Z,1038.19
2023-02-06T01:54:04.090Z,1038.22
2023-02-06T01:55:04.047Z,1038.21
2023-02-06T01:56:04.008Z,1038.22
2023-02-06T01:57:03.998Z,1038.18
2023-02-06T01:58:04.000Z,1038.16
2023-02-06T01:59:03.965Z,1038.12
2023-02-06T02:00:04.049Z,1038.05
2023-02-06T02:01:03.996Z,1038.10
2023-02-06T02:02:03.975Z,1038.07
2023-02-06T02:03:03.924Z,1038.13
2023-02-06T02:04:03.909Z,1038.12
2023-02-06T02:05:03.926Z,1038.12
2023-02-06T02:06:03.932Z,1038.10
2023-02-06T02:07:03.884Z,1038.08
2023-02-06T02:08:03.892Z,1038.09
2023-02-06T02:09:03.933Z,1038.05
2023-02-06T02:10:03.845Z,1038.08
2023-02-06T02:11:03.836Z,1038.12
2023-02-06T02:12:03.821Z,1038.07
2023-02-06T02:13:03.820Z,1038.13
2023-02-06T02:14:03.803Z,1038.16
2023-02-06T02:15:03.834Z,1038.07
2023-02-06T02:16:03.825Z,1038.05
2023-02-06T02:17:03.772Z,1038.05
2023-02-06T02:18:03.767Z,1038.07
2023-02-06T02:19:03.749Z,1038.09
2023-02-06T02:20:03.748Z,1038.04
2023-02-06T02:21:03.758Z,1038.07
2023-02-06T02:22:03.717Z,1038.06
2023-02-06T02:23:03.698Z,1038.05
2023-02-06T02:24:03.700Z,1038.05
2023-02-06T02:25:03.701Z,1038.11
2023-02-06T02:26:03.679Z,1038.07
2023-02-06T02:27:03.661Z,1038.02
2023-02-06T02:28:03.679Z,1038.00
2023-02-06T02:29:03.640Z,1037.96
2023-02-06T02:30:03.678Z,1037.98
2023-02-06T02:31:03.634Z,1037.94
2023-02-06T02:32:03.621Z,1037.93
2023-02-06T02:33:03.592Z,1037.94
2023-02-06T02:34:03.591Z,1037.97
2023-02-06T02:35:03.680Z,1038.00
2023-02-06T02:36:03.604Z,1037.93
2023-02-06T02:37:03.553Z,1038.02
2023-02-06T02:38:03.582Z,1037.99
2023-02-06T02:39:03.558Z,1037.97
2023-02-06T02:40:05.653Z,1037.95
2023-02-06T02:41:03.511Z,1037.95
2023-02-06T02:42:03.503Z,1037.86
2023-02-06T02:43:03.504Z,1037.93
2023-02-06T02:44:03.608Z,1037.93
2023-02-06T02:45:03.465Z,1037.95
2023-02-06T02:46:03.776Z,1037.98
2023-02-06T02:47:04.907Z,1037.92
2023-02-06T02:48:03.460Z,1038.05
2023-02-06T02:49:03.462Z,1037.98
2023-02-06T02:50:03.402Z,1038.02
2023-02-06T02:51:03.394Z,1038.01
2023-02-06T02:52:03.447Z,1038.05
2023-02-06T02:53:04.322Z,1038.02
2023-02-06T02:54:03.377Z,1038.05
2023-02-06T02:55:03.354Z,1037.99
2023-02-06T02:56:03.338Z,1038.00
2023-02-06T02:57:03.325Z,1037.89
2023-02-06T02:58:03.330Z,1037.91
2023-02-06T02:59:03.334Z,1037.86
2023-02-06T03:00:03.292Z,1037.86
2023-02-06T03:01:03.372Z,1037.80
2023-02-06T03:02:03.349Z,1037.84
2023-02-06T03:03:03.250Z,1037.84
2023-02-06T03:04:03.249Z,1037.85
2023-02-06T03:05:03.438Z,1037.84
2023-02-06T03:06:03.230Z,1037.93
2023-02-06T03:07:03.251Z,1037.88
2023-02-06T03:08:03.220Z,1037.90
2023-02-06T03:09:03.191Z,1037.91
2023-02-06T03:10:03.191Z,1037.91
2023-02-06T03:11:03.161Z,1037.89
2023-02-06T03:12:04.655Z,1037.81
2023-02-06T03:13:03.171Z,1037.85
2023-02-06T03:14:03.183Z,1037.77
2023-02-06T03:15:04.154Z,1037.83
2023-02-06T03:16:03.121Z,1037.81
2023-02-06T03:17:03.103Z,1037.77
2023-02-06T03:18:03.125Z,1037.83
2023-02-06T03:19:04.037Z,1037.82
2023-02-06T03:20:03.080Z,1037.85
2023-02-06T03:21:03.072Z,1037.87
2023-02-06T03:22:03.042Z,1037.82
2023-02-06T03:23:03.043Z,1037.87
2023-02-06T03:24:03.038Z,1037.88
2023-02-06T03:25:03.013Z,1037.87
2023-02-06T03:26:03.044Z,1037.86
2023-02-06T03:27:02.994Z,1037.83
2023-02-06T03:28:03.010Z,1037.80
2023-02-06T03:29:02.968Z,1037.81
2023-02-06T03:30:02.966Z,1037.76
2023-02-06T03:31:02.985Z,1037.80
2023-02-06T03:32:02.948Z,1037.75
2023-02-06T03:33:02.937Z,1037.77
2023-02-06T03:34:02.915Z,1037.81
2023-02-06T03:35:02.910Z,1037.88
2023-02-06T03:36:02.897Z,1037.82
2023-02-06T03:37:02.926Z,1037.84
2023-02-06T03:38:02.887Z,1037.77
2023-02-06T03:39:02.905Z,1037.75
2023-02-06T03:40:02.884Z,1037.83
2023-02-06T03:41:02.837Z,1037.77
2023-02-06T03:42:02.838Z,1037.81
2023-02-06T03:43:02.830Z,1037.81
2023-02-06T03:44:02.820Z,1037.75
2023-02-06T03:45:02.825Z,1037.79
2023-02-06T03:46:02.896Z,1037.85
2023-02-06T03:47:02.781Z,1037.82
2023-02-06T03:48:02.814Z,1037.77
2023-02-06T03:49:02.748Z,1037.83
2023-02-06T03:50:02.764Z,1037.87
2023-02-06T03:51:02.772Z,1037.82
2023-02-06T03:52:02.780Z,1037.87
2023-02-06T03:53:02.709Z,1037.88
2023-02-06T03:54:02.720Z,1037.89
2023-02-06T03:55:02.695Z,1037.87
2023-02-06T03:56:02.694Z,1037.83
2023-02-06T03:57:02.693Z,1037.92
2023-02-06T03:58:02.696Z,1037.95
2023-02-06T03:59:02.648Z,1037.94
2023-02-06T04:00:02.664Z,1037.86
2023-02-06T04:01:02.674Z,1037.85
2023-02-06T04:02:02.695Z,1037.88
2023-02-06T04:03:02.608Z,1037.77
2023-02-06T04:04:02.594Z,1037.78
2023-02-06T04:05:02.606Z,1037.80
2023-02-06T04:06:02.599Z,1037.74
2023-02-06T04:07:02.556Z,1037.80
2023-02-06T04:08:02.609Z,1037.81
2023-02-06T04:09:02.537Z,1037.78
2023-02-06T04:10:02.540Z,1037.75
2023-02-06T04:11:02.635Z,1037.72
2023-02-06T04:12:02.528Z,1037.71
2023-02-06T04:13:02.491Z,1037.75
2023-02-06T04:14:02.512Z,1037.71
2023-02-06T04:15:02.508Z,1037.69
2023-02-06T04:16:02.467Z,1037.78
2023-02-06T04:17:02.458Z,1037.79
2023-02-06T04:18:03.422Z,1037.76
2023-02-06T04:19:03.379Z,1037.76
2023-02-06T04:20:02.419Z,1037.78
2023-02-06T04:21:02.389Z,1037.75
2023-02-06T04:22:02.401Z,1037.75
2023-02-06T04:23:02.410Z,1037.78
2023-02-06T04:24:02.400Z,1037.83
2023-02-06T04:25:02.383Z,1037.83
2023-02-06T04:26:02.410Z,1037.80
2023-02-06T04:27:02.335Z,1037.81
2023-02-06T04:28:02.388Z,1037.89
2023-02-06T04:29:02.355Z,1037.87
2023-02-06T04:30:02.326Z,1037.89
2023-02-06T04:31:02.424Z,1037.86
2023-02-06T04:32:02.280Z,1037.83
2023-02-06T04:33:02.390Z,1037.93
2023-02-06T04:34:02.296Z,1037.88
2023-02-06T04:35:02.272Z,1037.88
2023-02-06T04:36:02.282Z,1037.88
2023-02-06T04:37:02.287Z,1037.90
2023-02-06T04:38:02.224Z,1037.85
2023-02-06T04:39:02.211Z,1037.91
2023-02-06T04:40:02.224Z,1037.94
2023-02-06T04:41:02.181Z,1037.98
2023-02-06T04:42:02.189Z,1038.01
2023-02-06T04:43:02.163Z,1037.99
2023-02-06T04:44:02.174Z,1038.00
2023-02-06T04:45:02.157Z,1037.98
2023-02-06T04:46:02.204Z,1037.95
2023-02-06T04:47:02.122Z,1037.97
2023-02-06T04:48:02.105Z,1038.05
2023-02-06T04:49:02.170Z,1038.04
2023-02-06T04:50:02.095Z,1038.02
2023-02-06T04:51:02.090Z,1038.11
2023-02-06T04:52:02.098Z,1038.09
2023-02-06T04:53:02.078Z,1038.10
2023-02-06T04:54:02.050Z,1038.11
2023-02-06T04:55:02.063Z,1038.09
2023-02-06T04:56:02.029Z,1038.17
2023-02-06T04:57:02.045Z,1038.20
2023-02-06T04:58:02.004Z,1038.23
2023-02-06T04:59:01.989Z,1038.17
2023-02-06T05:00:02.013Z,1038.21
2023-02-06T05:01:01.975Z,1038.21
2023-02-06T05:02:01.947Z,1038.17
2023-02-06T05:03:01.988Z,1038.20
2023-02-06T05:04:01.932Z,1038.13
2023-02-06T05:05:01.923Z,1038.14
2023-02-06T05:06:01.905Z,1038.08
2023-02-06T05:07:03.441Z,1038.09
2023-02-06T05:08:01.886Z,1038.09
2023-02-06T05:09:02.890Z,1038.08
2023-02-06T05:10:01.851Z,1038.12
2023-02-06T05:11:01.878Z,1038.14
2023-02-06T05:12:01.854Z,1038.11
2023-02-06T05:13:01.871Z,1038.18
2023-02-06T05:14:01.822Z,1038.18
2023-02-06T05:15:01.825Z,1038.12
2023-02-06T05:16:01.805Z,1038.14
2023-02-06T05:17:01.791Z,1038.13
2023-02-06T05:18:01.776Z,1038.23
2023-02-06T05:19:01.792Z,1038.13
2023-02-06T05:20:01.760Z,1038.13
2023-02-06T05:21:01.768Z,1038.20
2023-02-06T05:22:01.752Z,1038.18
2023-02-06T05:23:01.725Z,1038.15
2023-02-06T05:24:01.697Z,1038.10
2023-02-06T05:25:01.700Z,1038.07
2023-02-06T05:26:01.713Z,1038.01
2023-02-06T05:27:01.706Z,1038.04
2023-02-06T05:28:01.678Z,1037.95
2023-02-06T05:29:01.684Z,1037.97
2023-02-06T05:30:01.643Z,1037.92
2023-02-06T05:31:01.718Z,1037.96
2023-02-06T05:32:01.919Z,1037.96
2023-02-06T05:33:01.668Z,1038.03
2023-02-06T05:34:01.597Z,1038.03
2023-02-06T05:35:01.579Z,1038.10
2023-02-06T05:36:01.562Z,1038.02
2023-02-06T05:37:01.757Z,1038.02
2023-02-06T05:38:02.535Z,1037.98
2023-02-06T05:39:01.549Z,1038.02
2023-02-06T05:40:01.563Z,1037.99
2023-02-06T05:41:01.569Z,1037.91
2023-02-06T05:42:01.499Z,1037.92
2023-02-06T05:43:01.538Z,1037.94
2023-02-06T05:44:01.606Z,1037.95
2023-02-06T05:45:01.518Z,1037.91
2023-02-06T05:46:02.969Z,1037.86
2023-02-06T05:47:01.474Z,1037.86
2023-02-06T05:48:01.428Z,1037.84
2023-02-06T05:49:01.462Z,1037.78
2023-02-06T05:50:01.437Z,1037.83
2023-02-06T05:51:01.424Z,1037.84
2023-02-06T05:52:01.403Z,1037.75
2023-02-06T05:53:02.347Z,1037.79
2023-02-06T05:54:01.420Z,1037.84
2023-02-06T05:55:01.359Z,1037.90
2023-02-06T05:56:01.360Z,1037.90
2023-02-06T05:57:01.362Z,1037.91
2023-02-06T05:58:01.588Z,1037.92
2023-02-06T05:59:01.372Z,1037.99
2023-02-06T06:00:01.309Z,1038.02
2023-02-06T06:01:01.294Z,1038.00
2023-02-06T06:02:01.313Z,1038.01
2023-02-06T06:03:01.292Z,1038.01
2023-02-06T06:04:01.304Z,1038.02
2023-02-06T06:05:01.442Z,1037.96
2023-02-06T06:06:01.240Z,1038.04
2023-02-06T06:07:01.242Z,1037.97
2023-02-06T06:08:01.238Z,1037.86
2023-02-06T06:09:01.225Z,1037.86
2023-02-06T06:10:01.206Z,1037.77
2023-02-06T06:11:02.079Z,1037.79
2023-02-06T06:12:01.245Z,1037.75
2023-02-06T06:13:01.217Z,1037.79
2023-02-06T06:14:01.176Z,1037.80
2023-02-06T06:15:01.169Z,1037.83
2023-02-06T06:16:01.185Z,1037.84
2023-02-06T06:17:01.152Z,1037.82
2023-02-06T06:18:01.150Z,1037.88
2023-02-06T06:19:01.122Z,1037.79
2023-02-06T06:20:01.150Z,1037.87
2023-02-06T06:21:01.080Z,1037.78
2023-02-06T06:22:01.072Z,1037.81
2023-02-06T06:23:02.165Z,1037.73
2023-02-06T06:24:01.053Z,1037.76
2023-02-06T06:25:01.036Z,1037.82
2023-02-06T06:26:01.043Z,1037.75
2023-02-06T06:27:01.057Z,1037.81
2023-02-06T06:28:01.070Z,1037.85
2023-02-06T06:29:01.035Z,1037.75
2023-02-06T06:30:00.987Z,1037.75
2023-02-06T06:31:01.035Z,1037.75
2023-02-06T06:32:00.959Z,1037.78
2023-02-06T06:33:00.956Z,1037.75
2023-02-06T06:34:00.978Z,1037.70
2023-02-06T06:35:00.920Z,1037.72
2023-02-06T06:36:01.171Z,1037.71
2023-02-06T06:37:00.900Z,1037.72
2023-02-06T06:38:00.934Z,1037.70
2023-02-06T06:39:00.903Z,1037.72
2023-02-06T06:40:00.862Z,1037.74
2023-02-06T06:41:00.863Z,1037.79
2023-02-06T06:42:00.877Z,1037.72
2023-02-06T06:43:00.868Z,1037.71
2023-02-06T06:44:00.830Z,1037.71
2023-02-06T06:45:00.892Z,1037.67
2023-02-06T06:46:00.883Z,1037.77
2023-02-06T06:47:00.790Z,1037.80
2023-02-06T06:48:00.820Z,1037.75
2023-02-06T06:49:00.772Z,1037.75
2023-02-06T06:50:00.778Z,1037.75
2023-02-06T06:51:00.791Z,1037.70
2023-02-06T06:52:00.758Z,1037.68
2023-02-06T06:53:00.935Z,1037.70
2023-02-06T06:54:00.718Z,1037.67
2023-02-06T06:55:00.723Z,1037.68
2023-02-06T06:56:00.682Z,1037.71
2023-02-06T06:57:00.684Z,1037.70
2023-02-06T06:58:00.676Z,1037.73
2023-02-06T06:59:00.654Z,1037.71
2023-02-06T07:00:00.710Z,1037.70
2023-02-06T07:01:00.873Z,1037.73
2023-02-06T07:02:00.612Z,1037.69
2023-02-06T07:03:00.694Z,1037.68
2023-02-06T07:04:00.616Z,1037.68
2023-02-06T07:05:00.728Z,1037.69
2023-02-06T07:06:00.617Z,1037.75
2023-02-06T07:07:00.716Z,1037.69
2023-02-06T07:08:00.564Z,1037.68
2023-02-06T07:09:00.549Z,1037.69
2023-02-06T07:10:00.534Z,1037.66
2023-02-06T07:11:00.537Z,1037.76
2023-02-06T07:12:00.545Z,1037.70
2023-02-06T07:13:00.566Z,1037.72
2023-02-06T07:14:00.485Z,1037.70
2023-02-06T07:15:00.521Z,1037.66
2023-02-06T07:16:00.470Z,1037.67
2023-02-06T07:17:00.509Z,1037.78
2023-02-06T07:18:00.520Z,1037.78
2023-02-06T07:19:00.444Z,1037.79
2023-02-06T07:20:00.440Z,1037.78
2023-02-06T07:21:00.431Z,1037.77
2023-02-06T07:22:00.416Z,1037.84
2023-02-06T07:23:00.392Z,1037.84
2023-02-06T07:24:01.216Z,1037.81
2023-02-06T07:25:00.366Z,1037.75
2023-02-06T07:26:00.347Z,1037.80
2023-02-06T07:27:00.359Z,1037.78
2023-02-06T07:28:00.421Z,1037.75
2023-02-06T07:29:00.479Z,1037.72
2023-02-06T07:30:00.310Z,1037.72
2023-02-06T07:31:00.440Z,1037.71
2023-02-06T07:32:00.573Z,1037.68
2023-02-06T07:33:00.279Z,1037.68
2023-02-06T07:34:01.216Z,1037.64
2023-02-06T07:35:00.290Z,1037.71
2023-02-06T07:36:02.597Z,1037.76
2023-02-06T07:37:00.302Z,1037.66
2023-02-06T07:38:00.220Z,1037.60
2023-02-06T07:39:00.217Z,1037.66
2023-02-06T07:40:00.202Z,1037.71
2023-02-06T07:41:00.200Z,1037.71
2023-02-06T07:42:00.174Z,1037.70
2023-02-06T07:43:00.219Z,1037.68
2023-02-06T07:44:00.156Z,1037.69
2023-02-06T07:45:00.159Z,1037.74
2023-02-06T07:46:00.185Z,1037.71
2023-02-06T07:47:00.142Z,1037.72
2023-02-06T07:48:00.151Z,1037.74
2023-02-06T07:49:00.122Z,1037.67
2023-02-06T07:50:00.149Z,1037.68
2023-02-06T07:51:00.111Z,1037.69
2023-02-06T07:52:00.130Z,1037.64
2023-02-06T07:53:00.058Z,1037.63
2023-02-06T07:54:00.035Z,1037.62
2023-02-06T07:55:00.034Z,1037.60
2023-02-06T07:56:01.061Z,1037.61
2023-02-06T07:57:00.013Z,1037.58
2023-02-06T07:58:00.031Z,1037.59
2023-02-06T07:59:00.011Z,1037.65
2023-02-06T07:59:59.998Z,1037.68
2023-02-06T08:00:59.987Z,1037.64
2023-02-06T08:01:59.978Z,1037.69
2023-02-06T08:03:00.193Z,1037.70
2023-02-06T08:03:59.974Z,1037.69
2023-02-06T08:05:00.125Z,1037.77
2023-02-06T08:06:00.496Z,1037.76
2023-02-06T08:06:59.938Z,1037.75
2023-02-06T08:07:59.888Z,1037.68
2023-02-06T08:08:59.904Z,1037.76
2023-02-06T08:09:59.878Z,1037.73
2023-02-06T08:10:59.905Z,1037.77
2023-02-06T08:11:59.862Z,1037.80
2023-02-06T08:12:59.859Z,1037.79
2023-02-06T08:14:00.032Z,1037.85
2023-02-06T08:14:59.823Z,1037.78
2023-02-06T08:15:59.807Z,1037.74
2023-02-06T08:16:59.835Z,1037.73
2023-02-06T08:17:59.810Z,1037.71
2023-02-06T08:18:59.796Z,1037.72
2023-02-06T08:19:59.805Z,1037.70
2023-02-06T08:20:59.764Z,1037.73
2023-02-06T08:21:59.737Z,1037.65
2023-02-06T08:22:59.749Z,1037.65
2023-02-06T08:23:59.721Z,1037.61
2023-02-06T08:24:59.727Z,1037.57
2023-02-06T08:25:59.748Z,1037.62
2023-02-06T08:26:59.714Z,1037.67
2023-02-06T08:27:59.695Z,1037.64
2023-02-06T08:28:59.667Z,1037.64
2023-02-06T08:29:59.668Z,1037.68
2023-02-06T08:30:59.750Z,1037.71
2023-02-06T08:31:59.619Z,1037.74
2023-02-06T08:32:59.635Z,1037.72
2023-02-06T08:33:59.608Z,1037.76
2023-02-06T08:34:59.601Z,1037.72
2023-02-06T08:35:59.580Z,1037.72
2023-02-06T08:36:59.583Z,1037.67
2023-02-06T08:37:59.604Z,1037.65
2023-02-06T08:38:59.551Z,1037.60
2023-02-06T08:39:59.532Z,1037.59
2023-02-06T08:40:59.544Z,1037.53
2023-02-06T08:41:59.521Z,1037.48
2023-02-06T08:42:59.510Z,1037.48
2023-02-06T08:43:59.545Z,1037.49
2023-02-06T08:44:59.470Z,1037.53
2023-02-06T08:45:59.860Z,1037.45
2023-02-06T08:47:09.714Z,1037.44
2023-02-06T08:48:00.460Z,1037.51
2023-02-06T08:48:59.447Z,1037.47
2023-02-06T08:50:01.581Z,1037.49
2023-02-06T08:50:59.413Z,1037.50
2023-02-06T08:51:59.404Z,1037.54
2023-02-06T08:52:59.395Z,1037.46
2023-02-06T08:53:59.389Z,1037.47
2023-02-06T08:54:59.373Z,1037.45
2023-02-06T08:55:59.375Z,1037.49
2023-02-06T08:56:59.364Z,1037.45
2023-02-06T08:57:59.337Z,1037.53
2023-02-06T08:58:59.330Z,1037.49
2023-02-06T08:59:59.360Z,1037.57
2023-02-06T09:00:59.305Z,1037.62
2023-02-06T09:01:59.287Z,1037.64
2023-02-06T09:02:59.295Z,1037.65
2023-02-06T09:03:59.285Z,1037.67
2023-02-06T09:04:59.256Z,1037.68
2023-02-06T09:06:05.600Z,1037.66
2023-02-06T09:07:00.285Z,1037.67
2023-02-06T09:07:59.252Z,1037.65
2023-02-06T09:08:59.207Z,1037.72
2023-02-06T09:09:59.248Z,1037.71
2023-02-06T09:10:59.207Z,1037.72
2023-02-06T09:11:59.182Z,1037.70
2023-02-06T09:12:59.165Z,1037.70
2023-02-06T09:13:59.183Z,1037.69
2023-02-06T09:14:59.284Z,1037.68
2023-02-06T09:15:59.187Z,1037.68
2023-02-06T09:16:59.151Z,1037.71
2023-02-06T09:17:59.498Z,1037.65
2023-02-06T09:18:59.116Z,1037.67
2023-02-06T09:19:59.120Z,1037.64
2023-02-06T09:20:59.135Z,1037.59
2023-02-06T09:21:59.087Z,1037.60
2023-02-06T09:22:59.065Z,1037.61
2023-02-06T09:23:59.060Z,1037.57
2023-02-06T09:24:59.033Z,1037.53
2023-02-06T09:25:59.045Z,1037.60
2023-02-06T09:27:00.818Z,1037.62
2023-02-06T09:27:59.043Z,1037.65
2023-02-06T09:28:59.248Z,1037.64
2023-02-06T09:29:59.317Z,1037.70
2023-02-06T09:30:59.134Z,1037.66
2023-02-06T09:31:59.772Z,1037.63
2023-02-06T09:32:58.970Z,1037.70
2023-02-06T09:33:59.263Z,1037.66
2023-02-06T09:34:59.874Z,1037.68
2023-02-06T09:35:58.922Z,1037.77
2023-02-06T09:36:59.483Z,1037.78
2023-02-06T09:37:59.149Z,1037.71
2023-02-06T09:38:58.896Z,1037.74
2023-02-06T09:39:58.874Z,1037.76
2023-02-06T09:40:58.844Z,1037.77
2023-02-06T09:41:58.848Z,1037.73
2023-02-06T09:42:58.856Z,1037.80
2023-02-06T09:43:58.819Z,1037.76
2023-02-06T09:44:58.815Z,1037.81
2023-02-06T09:45:59.505Z,1037.79
2023-02-06T09:46:58.829Z,1037.82
2023-02-06T09:47:59.647Z,1037.84
2023-02-06T09:48:59.615Z,1037.91
2023-02-06T09:49:58.832Z,1037.93
2023-02-06T09:50:58.736Z,1037.95
2023-02-06T09:51:58.749Z,1037.97
2023-02-06T09:52:58.746Z,1037.95
2023-02-06T09:53:58.718Z,1037.98
2023-02-06T09:54:58.722Z,1037.97
2023-02-06T09:55:58.685Z,1037.92
2023-02-06T09:56:58.670Z,1037.88
2023-02-06T09:57:58.676Z,1037.94
2023-02-06T09:58:58.681Z,1037.91
2023-02-06T09:59:58.644Z,1037.94
2023-02-06T10:00:58.653Z,1037.94
2023-02-06T10:01:58.732Z,1037.93
2023-02-06T10:02:58.600Z,1037.88
2023-02-06T10:03:58.728Z,1037.89
2023-02-06T10:04:59.380Z,1037.94
2023-02-06T10:05:58.593Z,1038.00
2023-02-06T10:06:58.605Z,1037.98
2023-02-06T10:07:58.579Z,1037.97
2023-02-06T10:08:58.542Z,1037.95
2023-02-06T10:09:59.499Z,1037.96
2023-02-06T10:10:58.580Z,1037.94
2023-02-06T10:11:58.528Z,1037.92
2023-02-06T10:12:59.298Z,1038.01
2023-02-06T10:13:58.587Z,1037.97
2023-02-06T10:14:58.472Z,1037.98
2023-02-06T10:15:58.482Z,1037.89
2023-02-06T10:16:58.495Z,1037.87
2023-02-06T10:17:58.458Z,1037.92
2023-02-06T10:18:58.522Z,1037.92
2023-02-06T10:19:58.493Z,1037.90
2023-02-06T10:20:58.402Z,1037.90
2023-02-06T10:21:59.850Z,1037.96
2023-02-06T10:22:58.414Z,1037.88
2023-02-06T10:23:58.382Z,1037.92
2023-02-06T10:24:58.356Z,1037.91
2023-02-06T10:25:58.348Z,1037.92
2023-02-06T10:26:58.345Z,1037.95
2023-02-06T10:27:58.449Z,1037.95
2023-02-06T10:28:58.334Z,1037.98
2023-02-06T10:29:58.337Z,1037.88
2023-02-06T10:30:58.442Z,1037.98
2023-02-06T10:31:58.346Z,1037.95
2023-02-06T10:32:58.485Z,1037.96
2023-02-06T10:33:58.291Z,1037.95
2023-02-06T10:34:58.309Z,1037.96
2023-02-06T10:35:58.490Z,1037.96
2023-02-06T10:36:58.349Z,1037.89
2023-02-06T10:37:58.524Z,1037.90
2023-02-06T10:38:58.453Z,1037.89
2023-02-06T10:39:58.352Z,1037.91
2023-02-06T10:40:58.192Z,1037.88
2023-02-06T10:41:58.208Z,1037.85
2023-02-06T10:42:58.184Z,1037.86
2023-02-06T10:43:58.158Z,1037.83
2023-02-06T10:45:03.713Z,1037.79
2023-02-06T10:45:59.607Z,1037.79
2023-02-06T10:46:58.198Z,1037.75
2023-02-06T10:47:58.200Z,1037.75
2023-02-06T10:48:58.375Z,1037.83
2023-02-06T10:49:58.106Z,1037.79
2023-02-06T10:50:58.107Z,1037.80
2023-02-06T10:51:58.072Z,1037.73
2023-02-06T10:52:58.055Z,1037.68
2023-02-06T10:53:58.045Z,1037.70
2023-02-06T10:54:58.078Z,1037.70
2023-02-06T10:55:58.036Z,1037.70
2023-02-06T10:56:58.034Z,1037.63
2023-02-06T10:57:58.003Z,1037.68
2023-02-06T10:58:57.988Z,1037.65
2023-02-06T10:59:58.427Z,1037.58
2023-02-06T11:00:57.990Z,1037.66
2023-02-06T11:01:59.138Z,1037.62
2023-02-06T11:03:07.172Z,1037.62
2023-02-06T11:03:58.993Z,1037.58
2023-02-06T11:04:57.949Z,1037.63
2023-02-06T11:05:58.026Z,1037.64
2023-02-06T11:06:57.901Z,1037.67
2023-02-06T11:07:57.922Z,1037.61
2023-02-06T11:08:58.582Z,1037.60
2023-02-06T11:09:57.918Z,1037.57
2023-02-06T11:10:57.892Z,1037.54
2023-02-06T11:11:59.315Z,1037.49
2023-02-06T11:12:57.847Z,1037.51
2023-02-06T11:13:57.839Z,1037.48
2023-02-06T11:14:57.850Z,1037.47
2023-02-06T11:15:57.883Z,1037.43
2023-02-06T11:16:57.805Z,1037.52
2023-02-06T11:17:57.791Z,1037.54
2023-02-06T11:18:57.776Z,1037.46
2023-02-06T11:19:57.781Z,1037.52
2023-02-06T11:20:57.771Z,1037.49
2023-02-06T11:21:57.755Z,1037.44
2023-02-06T11:22:57.768Z,1037.44
2023-02-06T11:23:57.742Z,1037.45
2023-02-06T11:24:57.707Z,1037.41
2023-02-06T11:25:57.732Z,1037.40
2023-02-06T11:26:57.724Z,1037.38
2023-02-06T11:27:58.675Z,1037.32
2023-02-06T11:28:57.701Z,1037.40
2023-02-06T11:29:57.664Z,1037.29
2023-02-06T11:30:57.686Z,1037.35
2023-02-06T11:31:57.677Z,1037.32
2023-02-06T11:33:04.314Z,1037.30
2023-02-06T11:33:58.602Z,1037.23
2023-02-06T11:34:57.603Z,1037.22
2023-02-06T11:35:57.581Z,1037.19
2023-02-06T11:36:57.597Z,1037.10
2023-02-06T11:37:57.568Z,1037.12
2023-02-06T11:38:57.559Z,1037.10
2023-02-06T11:39:57.563Z,1037.09
2023-02-06T11:40:57.515Z,1037.08
2023-02-06T11:41:57.544Z,1037.07
2023-02-06T11:42:57.529Z,1037.08
2023-02-06T11:43:57.494Z,1037.13
2023-02-06T11:44:57.489Z,1037.08
2023-02-06T11:45:57.479Z,1037.07
2023-02-06T11:46:57.474Z,1037.02
2023-02-06T11:47:57.445Z,1036.96
2023-02-06T11:48:57.437Z,1036.91
2023-02-06T11:49:57.423Z,1036.91
2023-02-06T11:50:57.433Z,1036.92
2023-02-06T11:51:57.420Z,1036.85
2023-02-06T11:52:57.393Z,1036.84
2023-02-06T11:53:57.381Z,1036.81
2023-02-06T11:54:57.367Z,1036.83
2023-02-06T11:55:57.373Z,1036.82
2023-02-06T11:56:57.378Z,1036.80
2023-02-06T11:57:57.337Z,1036.77
2023-02-06T11:58:57.321Z,1036.80
2023-02-06T11:59:57.322Z,1036.78
2023-02-06T12:00:57.301Z,1036.78
2023-02-06T12:01:57.320Z,1036.81
2023-02-06T12:02:57.332Z,1036.77
2023-02-06T12:03:57.274Z,1036.83
2023-02-06T12:04:57.260Z,1036.84